Time;durP1;ratioP1;P1;durP2;ratioP2;P2;SDS_P1;SDS_P2;PMS_P1;PMS_P2;Temp;Humidity;BMP_temperature;BMP_pressure;BME280_temperature;BME280_humidity;BME280_pressure;Samples;Min_cycle;Max_cycle;Signal;HPM_P1;HPM_P2
2023/02/18 00:01:56;;;;;;;;;;;;;;;10.58;77.35;98646.63;5059351;28;19998;-55
2023/02/18 00:04:24;;;;;;;;;;;;;;;10.60;77.49;98652.56;5065320;28;19931;-53
2023/02/18 00:06:53;;;;;;;;;;;;;;;10.57;77.51;98655.88;5069661;28;19928;-54
2023/02/18 00:09:21;;;;;;;;;;;;;;;10.60;77.57;98649.03;5071949;28;20009;-55
2023/02/18 00:11:49;;;;;;;;;;;;;;;10.59;77.55;98667.25;5065759;28;19939;-54
2023/02/18 00:17:13;;;;;;;;;;;;;;;10.54;78.22;98661.06;5066830;28;20364;-54
2023/02/18 00:19:42;;;;;;;;;;;;;;;10.57;78.07;98650.44;5095477;28;19962;-54
2023/02/18 00:22:14;;;;;;;;;;;;;;;10.55;78.21;98651.84;5056473;28;19933;-55
2023/02/18 00:24:42;;;;;;;;;;;;;;;10.48;78.52;98641.31;5067167;28;19929;-55
2023/02/18 00:27:10;;;;;;;;;;;;;;;10.54;78.44;98655.63;5068156;28;19929;-56
2023/02/18 00:29:38;;;;;;;;;;;;;;;10.52;78.22;98650.50;5070337;28;19931;-54
2023/02/18 00:32:10;;;;;;;;;;;;;;;10.55;78.15;98657.28;5056411;28;20378;-56
2023/02/18 00:34:38;;;;;;;;;;;;;;;10.57;78.08;98649.63;5060267;28;19925;-56
2023/02/18 00:37:06;;;;;;;;;;;;;;;10.61;77.82;98650.66;5096611;28;19925;-55
2023/02/18 00:39:36;;;;;;;;;;;;;;;10.54;77.96;98650.19;5070629;28;19928;-63
2023/02/18 00:42:04;;;;;;;;;;;;;;;10.52;78.08;98649.69;5057315;28;19932;-55
2023/02/18 00:44:33;;;;;;;;;;;;;;;10.52;78.17;98650.50;5054330;28;20290;-55
2023/02/18 00:47:02;;;;;;;;;;;;;;;10.55;77.70;98643.69;5101544;28;19924;-54
2023/02/18 00:49:30;;;;;;;;;;;;;;;10.59;77.80;98650.94;5068385;28;20285;-55
2023/02/18 00:51:58;;;;;;;;;;;;;;;10.66;77.33;98643.25;5078143;28;19925;-56
2023/02/18 00:54:26;;;;;;;;;;;;;;;10.62;77.39;98669.38;5081136;28;19928;-55
2023/02/18 00:56:56;;;;;;;;;;;;;;;10.66;77.34;98645.16;5070188;28;20284;-56
2023/02/18 00:59:25;;;;;;;;;;;;;;;10.66;77.29;98650.59;5066284;28;19924;-54
2023/02/18 01:01:53;;;;;;;;;;;;;;;10.60;77.76;98647.16;5065900;28;20292;-55
2023/02/18 01:04:21;;;;;;;;;;;;;;;10.66;77.58;98658.75;5065052;28;19930;-56
2023/02/18 01:06:48;;;;;;;;;;;;;;;10.57;77.84;98655.06;5071222;28;19935;-55
2023/02/18 01:09:24;;;;;;;;;;;;;;;10.58;77.90;98653.97;5062460;28;19956;-55
2023/02/18 01:11:56;;;;;;;;;;;;;;;10.59;78.03;98652.84;5102380;28;19932;-55
2023/02/18 01:14:24;;;;;;;;;;;;;;;10.61;78.03;98656.09;5078391;28;19925;-62
2023/02/18 01:16:52;;;;;;;;;;;;;;;10.57;78.41;98660.50;5065187;28;20150;-63
2023/02/18 01:19:20;;;;;;;;;;;;;;;10.51;78.86;98656.25;5073196;28;19928;-61
2023/02/18 01:24:42;;;;;;;;;;;;;;;10.45;80.21;98645.44;5073090;28;19932;-55
2023/02/18 01:27:15;;;;;;;;;;;;;;;10.39;81.20;98653.97;5095126;28;19936;-55
2023/02/18 01:29:43;;;;;;;;;;;;;;;10.30;81.90;98661.94;5098792;27;19965;-54
2023/02/18 01:32:11;;;;;;;;;;;;;;;10.28;82.29;98647.00;5067688;28;19981;-56
2023/02/18 01:34:41;;;;;;;;;;;;;;;10.19;83.05;98660.41;5072275;28;20405;-56
2023/02/18 01:37:09;;;;;;;;;;;;;;;10.24;83.10;98646.81;5070416;28;19978;-60
2023/02/18 01:39:37;;;;;;;;;;;;;;;10.20;83.60;98662.03;5073281;28;19932;-55
2023/02/18 01:42:05;;;;;;;;;;;;;;;10.20;83.73;98667.47;5067440;28;19977;-66
2023/02/18 01:44:38;;;;;;;;;;;;;;;10.15;84.82;98653.94;5073084;28;19935;-54
2023/02/18 01:47:06;;;;;;;;;;;;;;;10.09;85.12;98657.81;5065160;28;19932;-58
2023/02/18 01:49:35;;;;;;;;;;;;;;;10.01;85.92;98653.00;5068424;28;19979;-55
2023/02/18 01:52:04;;;;;;;;;;;;;;;10.05;85.83;98660.28;5067790;28;19932;-55
2023/02/18 01:54:33;;;;;;;;;;;;;;;10.02;86.25;98654.66;5066578;28;20297;-56
2023/02/18 01:57:03;;;;;;;;;;;;;;;10.05;85.96;98656.78;5073186;28;19924;-55
2023/02/18 01:59:31;;;;;;;;;;;;;;;10.00;86.08;98656.81;5069259;28;19931;-62
2023/02/18 02:02:01;;;;;;;;;;;;;;;9.93;86.74;98655.28;5064623;28;20349;-54
2023/02/18 02:04:29;;;;;;;;;;;;;;;9.97;86.63;98650.91;5061265;28;21252;-54
2023/02/18 02:06:57;;;;;;;;;;;;;;;10.03;86.21;98646.22;5076632;28;20328;-54
2023/02/18 02:09:27;;;;;;;;;;;;;;;9.95;86.37;98638.69;5064332;28;19925;-55
2023/02/18 02:12:10;;;;;;;;;;;;;;;10.01;86.34;98637.53;5096550;28;19924;-54
2023/02/18 02:14:47;;;;;;;;;;;;;;;9.96;86.39;98629.47;5065968;28;20373;-54
2023/02/18 02:17:17;;;;;;;;;;;;;;;10.03;86.21;98631.84;5093937;28;19924;-55
2023/02/18 02:20:06;;;;;;;;;;;;;;;9.93;86.42;98630.84;5067605;28;20278;-54
2023/02/18 02:22:52;;;;;;;;;;;;;;;9.89;86.78;98618.94;5059255;28;20015;-55
2023/02/18 02:25:23;;;;;;;;;;;;;;;9.90;87.16;98620.56;5063690;28;19939;-54
2023/02/18 02:28:13;;;;;;;;;;;;;;;9.90;87.06;98625.19;5061032;28;19939;-54
2023/02/18 02:34:26;;;;;;;;;;;;;;;9.93;87.17;98613.75;5066945;28;19939;-55
2023/02/18 02:36:55;;;;;;;;;;;;;;;9.89;87.37;98612.72;5091520;28;19940;-56
2023/02/18 02:39:25;;;;;;;;;;;;;;;9.90;87.07;98615.13;5061093;28;20572;-54
2023/02/18 02:41:54;;;;;;;;;;;;;;;9.88;87.67;98606.47;5066286;28;20008;-56
2023/02/18 02:44:24;;;;;;;;;;;;;;;9.83;87.46;98606.53;5054472;28;19925;-54
2023/02/18 02:46:52;;;;;;;;;;;;;;;9.87;87.20;98607.59;5095848;28;19950;-54
2023/02/18 02:49:28;;;;;;;;;;;;;;;9.84;87.22;98600.00;5066442;28;19932;-54
2023/02/18 02:51:58;;;;;;;;;;;;;;;9.93;86.39;98587.41;5081322;28;19932;-55
2023/02/18 02:54:26;;;;;;;;;;;;;;;10.01;85.87;98582.44;5067329;28;19925;-55
2023/02/18 02:57:06;;;;;;;;;;;;;;;10.05;85.38;98583.47;5068000;28;19967;-55
2023/02/18 02:59:37;;;;;;;;;;;;;;;10.03;85.35;98583.78;5064999;28;19925;-56
2023/02/18 03:02:12;;;;;;;;;;;;;;;10.03;85.20;98569.41;5070016;28;20396;-55
2023/02/18 03:04:57;;;;;;;;;;;;;;;10.10;84.41;98581.50;5067597;28;19924;-54
2023/02/18 03:07:36;;;;;;;;;;;;;;;10.16;83.91;98577.63;5063133;28;20046;-54
2023/02/18 03:10:18;;;;;;;;;;;;;;;10.08;84.71;98585.63;5060241;28;19971;-54
2023/02/18 03:12:47;;;;;;;;;;;;;;;10.16;83.63;98579.53;5071827;28;19925;-55
2023/02/18 03:15:16;;;;;;;;;;;;;;;10.10;84.04;98581.50;5066702;28;20291;-54
2023/02/18 03:17:46;;;;;;;;;;;;;;;10.11;83.87;98583.09;5081585;28;19925;-55
2023/02/18 03:20:16;;;;;;;;;;;;;;;10.15;83.41;98577.91;5062622;28;19929;-54
2023/02/18 03:22:45;;;;;;;;;;;;;;;10.18;83.32;98580.88;5066490;28;19940;-55
2023/02/18 03:25:14;;;;;;;;;;;;;;;10.23;83.02;98583.53;5070703;28;19936;-55
2023/02/18 03:27:43;;;;;;;;;;;;;;;10.22;82.87;98583.78;5065603;28;21274;-54
2023/02/18 03:30:16;;;;;;;;;;;;;;;10.29;82.66;98588.91;5065056;28;19995;-54
2023/02/18 03:35:44;;;;;;;;;;;;;;;10.27;82.37;98601.94;5068679;28;19972;-53
2023/02/18 03:38:14;;;;;;;;;;;;;;;10.30;81.98;98588.59;5098208;27;19925;-54
2023/02/18 03:40:42;;;;;;;;;;;;;;;10.20;82.21;98580.56;5066250;28;19925;-54
2023/02/18 03:43:09;;;;;;;;;;;;;;;10.26;82.24;98584.84;5070896;28;19925;-54
2023/02/18 03:48:30;;;;;;;;;;;;;;;10.19;82.34;98590.63;5098304;28;20411;-55
2023/02/18 03:50:59;;;;;;;;;;;;;;;10.17;82.63;98587.41;5097851;28;19932;-54
2023/02/18 03:53:27;;;;;;;;;;;;;;;10.21;82.38;98584.88;5064331;28;19924;-54
2023/02/18 03:55:55;;;;;;;;;;;;;;;10.28;81.99;98588.09;5064383;28;19981;-54
2023/02/18 04:01:15;;;;;;;;;;;;;;;10.26;82.01;98593.00;5067870;28;19932;-53
2023/02/18 04:03:43;;;;;;;;;;;;;;;10.25;82.03;98596.00;5059178;28;19925;-54
2023/02/18 04:06:13;;;;;;;;;;;;;;;10.24;82.07;98597.94;5099352;28;20392;-54
2023/02/18 04:08:40;;;;;;;;;;;;;;;10.24;82.00;98587.06;5067806;28;19928;-54
2023/02/18 04:11:08;;;;;;;;;;;;;;;10.24;82.39;98600.63;5064445;28;19924;-55
2023/02/18 04:13:36;;;;;;;;;;;;;;;10.23;82.89;98590.84;5071615;28;19971;-54
2023/02/18 04:16:06;;;;;;;;;;;;;;;10.13;82.99;98580.13;5072441;28;20335;-55
2023/02/18 04:18:35;;;;;;;;;;;;;;;10.20;83.02;98602.28;5063995;28;20006;-55
2023/02/18 04:21:03;;;;;;;;;;;;;;;10.13;83.39;98596.41;5066803;28;19932;-56
2023/02/18 04:23:32;;;;;;;;;;;;;;;10.13;83.58;98601.84;5062646;28;19974;-55
2023/02/18 04:26:00;;;;;;;;;;;;;;;10.06;83.93;98604.91;5068953;28;19940;-55
2023/02/18 04:28:28;;;;;;;;;;;;;;;10.09;84.00;98598.09;5068999;28;19928;-55
2023/02/18 04:30:59;;;;;;;;;;;;;;;10.12;83.43;98595.59;5070049;28;19973;-55
2023/02/18 04:33:32;;;;;;;;;;;;;;;10.15;83.28;98600.44;5069611;28;19932;-55
2023/02/18 04:36:00;;;;;;;;;;;;;;;10.14;83.24;98593.41;5063126;28;19943;-54
2023/02/18 04:38:28;;;;;;;;;;;;;;;10.07;83.52;98598.38;5068806;28;19925;-55
2023/02/18 04:40:58;;;;;;;;;;;;;;;10.04;83.83;98592.72;5061920;28;19925;-55
2023/02/18 04:43:26;;;;;;;;;;;;;;;10.07;84.02;98592.16;5068855;28;19928;-54
2023/02/18 04:45:54;;;;;;;;;;;;;;;10.08;83.66;98593.75;5065351;28;20385;-56
2023/02/18 04:48:22;;;;;;;;;;;;;;;10.10;83.51;98586.94;5062322;28;19925;-55
2023/02/18 04:50:50;;;;;;;;;;;;;;;10.03;83.65;98594.63;5061014;28;19970;-54
2023/02/18 04:53:18;;;;;;;;;;;;;;;10.15;82.58;98594.22;5058187;28;19931;-54
2023/02/18 04:55:49;;;;;;;;;;;;;;;10.20;82.42;98596.84;5073215;28;20734;-54
2023/02/18 04:58:18;;;;;;;;;;;;;;;10.16;82.41;98595.81;5059022;28;20321;-54
2023/02/18 05:00:47;;;;;;;;;;;;;;;10.13;82.33;98596.41;5068820;28;19960;-54
2023/02/18 05:03:14;;;;;;;;;;;;;;;10.25;81.70;98594.09;5059687;28;19943;-55
2023/02/18 05:05:42;;;;;;;;;;;;;;;10.26;81.55;98592.19;5060938;28;19924;-55
2023/02/18 05:08:10;;;;;;;;;;;;;;;10.28;81.44;98593.53;5066223;28;20757;-54
2023/02/18 05:10:38;;;;;;;;;;;;;;;10.19;81.78;98596.06;5070842;28;19964;-55
2023/02/18 05:13:06;;;;;;;;;;;;;;;10.20;81.72;98586.81;5063655;28;20376;-55
2023/02/18 05:15:36;;;;;;;;;;;;;;;10.26;81.93;98592.19;5063603;28;20362;-54
2023/02/18 05:18:04;;;;;;;;;;;;;;;10.30;81.83;98591.31;5066950;28;20587;-55
2023/02/18 05:20:40;;;;;;;;;;;;;;;10.19;82.61;98589.81;5099799;27;20315;-55
2023/02/18 05:23:08;;;;;;;;;;;;;;;10.18;83.14;98588.19;5061377;28;19945;-55
2023/02/18 05:25:36;;;;;;;;;;;;;;;10.25;83.23;98593.28;5066989;28;19978;-55
2023/02/18 05:28:04;;;;;;;;;;;;;;;10.13;83.71;98589.06;5060538;28;21484;-55
2023/02/18 05:30:32;;;;;;;;;;;;;;;10.03;84.59;98575.63;5065517;28;19946;-55
2023/02/18 05:33:02;;;;;;;;;;;;;;;10.08;84.50;98582.91;5063144;28;20582;-55
2023/02/18 05:35:55;;;;;;;;;;;;;;;10.09;84.41;98576.38;5059878;28;19939;-57
2023/02/18 05:38:23;;;;;;;;;;;;;;;10.01;84.80;98577.81;5062900;28;20370;-56
2023/02/18 05:40:51;;;;;;;;;;;;;;;9.99;84.51;98582.72;5060672;28;19943;-55
2023/02/18 05:43:19;;;;;;;;;;;;;;;10.05;84.29;98580.75;5062208;28;19981;-55
2023/02/18 05:45:47;;;;;;;;;;;;;;;10.03;84.67;98586.50;5060250;28;19951;-54
2023/02/18 05:48:18;;;;;;;;;;;;;;;10.03;84.53;98577.53;5098767;28;19946;-54
2023/02/18 05:50:46;;;;;;;;;;;;;;;10.07;84.28;98582.09;5061619;28;19942;-54
2023/02/18 05:53:14;;;;;;;;;;;;;;;10.15;83.48;98581.44;5066651;28;19946;-55
2023/02/18 05:55:44;;;;;;;;;;;;;;;10.16;83.61;98574.09;5059094;28;20416;-54
2023/02/18 05:58:12;;;;;;;;;;;;;;;10.16;83.54;98574.09;5064290;28;20033;-55
2023/02/18 06:00:40;;;;;;;;;;;;;;;10.13;83.46;98563.84;5056482;28;19945;-54
2023/02/18 06:03:08;;;;;;;;;;;;;;;10.14;82.72;98573.59;5066391;28;20392;-54
2023/02/18 06:05:38;;;;;;;;;;;;;;;10.12;82.74;98567.63;5069096;28;19974;-55
2023/02/18 06:08:05;;;;;;;;;;;;;;;10.16;82.67;98577.63;5067816;28;19947;-55
2023/02/18 06:10:34;;;;;;;;;;;;;;;10.13;82.48;98583.66;5062386;28;19955;-54
2023/02/18 06:13:25;;;;;;;;;;;;;;;10.13;82.34;98574.69;5065378;28;20050;-54
2023/02/18 06:15:53;;;;;;;;;;;;;;;10.22;81.64;98572.91;5068916;28;19950;-55
2023/02/18 06:18:21;;;;;;;;;;;;;;;10.26;81.00;98568.56;5067985;28;20449;-57
2023/02/18 06:20:51;;;;;;;;;;;;;;;10.30;80.87;98571.50;5062041;28;19950;-61
2023/02/18 06:23:19;;;;;;;;;;;;;;;10.27;80.75;98578.31;5060131;28;19955;-54
2023/02/18 06:25:48;;;;;;;;;;;;;;;10.22;80.57;98583.78;5066191;28;19939;-54
2023/02/18 06:28:16;;;;;;;;;;;;;;;10.32;80.32;98594.53;5065228;28;20403;-54
2023/02/18 06:30:44;;;;;;;;;;;;;;;10.33;79.69;98582.56;5067257;28;19950;-54
2023/02/18 06:33:12;;;;;;;;;;;;;;;10.34;79.40;98567.91;5064000;28;19925;-56
2023/02/18 06:35:52;;;;;;;;;;;;;;;10.35;79.38;98560.56;5068758;28;19954;-55
2023/02/18 06:38:21;;;;;;;;;;;;;;;10.35;79.16;98560.56;5060333;28;20022;-54
2023/02/18 06:40:49;;;;;;;;;;;;;;;10.31;79.30;98559.53;5065268;28;20593;-55
2023/02/18 06:43:17;;;;;;;;;;;;;;;10.35;78.83;98555.94;5067335;28;19943;-54
2023/02/18 06:45:51;;;;;;;;;;;;;;;10.37;78.38;98551.00;5069202;28;20303;-57
2023/02/18 06:48:21;;;;;;;;;;;;;;;10.39;78.02;98562.41;5065778;28;20029;-54
2023/02/18 06:50:49;;;;;;;;;;;;;;;10.43;77.64;98557.97;5062895;28;20480;-54
2023/02/18 06:53:17;;;;;;;;;;;;;;;10.47;77.00;98556.28;5062805;28;19946;-54
2023/02/18 06:55:46;;;;;;;;;;;;;;;10.42;77.15;98550.13;5062589;28;20515;-54
2023/02/18 06:58:14;;;;;;;;;;;;;;;10.54;76.49;98545.03;5067993;28;19951;-55
2023/02/18 07:00:45;;;;;;;;;;;;;;;10.54;76.00;98557.81;5068057;28;19939;-54
2023/02/18 07:03:14;;;;;;;;;;;;;;;10.63;75.74;98547.91;5062949;28;19942;-54
2023/02/18 07:05:42;;;;;;;;;;;;;;;10.66;75.37;98536.47;5065253;28;19940;-55
2023/02/18 07:08:10;;;;;;;;;;;;;;;10.57;76.01;98540.94;5067848;28;19965;-54
2023/02/18 07:10:38;;;;;;;;;;;;;;;10.54;76.02;98549.69;5068523;28;20385;-55
2023/02/18 07:13:07;;;;;;;;;;;;;;;10.61;75.59;98540.06;5065534;28;19955;-55
2023/02/18 07:15:35;;;;;;;;;;;;;;;10.63;75.79;98540.56;5098776;28;19955;-55
2023/02/18 07:18:04;;;;;;;;;;;;;;;10.59;75.90;98531.38;5061892;28;20016;-55
2023/02/18 07:20:32;;;;;;;;;;;;;;;10.54;76.25;98530.66;5061996;28;19945;-55
2023/02/18 07:23:00;;;;;;;;;;;;;;;10.57;75.68;98532.81;5061363;28;19947;-54
2023/02/18 07:25:28;;;;;;;;;;;;;;;10.55;75.83;98530.38;5068658;28;19943;-55
2023/02/18 07:27:56;;;;;;;;;;;;;;;10.59;76.03;98530.59;5064176;28;19939;-56
2023/02/18 07:30:25;;;;;;;;;;;;;;;10.62;75.39;98528.09;5062293;28;19939;-54
2023/02/18 07:32:53;;;;;;;;;;;;;;;10.68;75.11;98532.34;5063600;28;19979;-55
2023/02/18 07:35:21;;;;;;;;;;;;;;;10.71;74.38;98534.47;5064950;28;19947;-55
2023/02/18 07:37:50;;;;;;;;;;;;;;;10.73;74.41;98539.59;5067229;28;20008;-55
2023/02/18 07:40:20;;;;;;;;;;;;;;;10.72;74.49;98538.81;5064776;28;19939;-55
2023/02/18 07:42:48;;;;;;;;;;;;;;;10.69;74.53;98535.84;5063454;28;19944;-57
2023/02/18 07:45:19;;;;;;;;;;;;;;;10.75;74.10;98538.19;5059847;28;19943;-55
2023/02/18 07:47:48;;;;;;;;;;;;;;;10.83;73.12;98538.63;5066363;28;20992;-55
2023/02/18 07:50:16;;;;;;;;;;;;;;;10.80;73.03;98529.16;5062455;28;19939;-55
2023/02/18 07:52:44;;;;;;;;;;;;;;;10.76;73.52;98536.31;5065478;28;19966;-56
2023/02/18 07:55:12;;;;;;;;;;;;;;;10.74;73.01;98536.59;5069190;28;19939;-55
2023/02/18 08:00:22;;;;;;;;;;;;;;;10.83;72.42;98511.44;5072435;28;19940;-56
2023/02/18 08:02:51;;;;;;;;;;;;;;;10.93;72.67;98524.88;5067025;28;19944;-55
2023/02/18 08:05:19;;;;;;;;;;;;;;;10.99;72.49;98526.41;5069967;28;19961;-55
2023/02/18 08:07:47;;;;;;;;;;;;;;;11.00;71.97;98522.56;5059453;28;19940;-54
2023/02/18 08:10:15;;;;;;;;;;;;;;;10.96;72.81;98533.22;5063802;28;19938;-55
2023/02/18 08:12:43;;;;;;;;;;;;;;;10.93;72.47;98533.03;5059425;28;19932;-56
2023/02/18 08:15:11;;;;;;;;;;;;;;;10.99;72.49;98535.34;5066216;28;19943;-57
2023/02/18 08:17:40;;;;;;;;;;;;;;;10.98;72.39;98531.03;5059515;28;19933;-54
2023/02/18 08:20:09;;;;;;;;;;;;;;;11.04;72.64;98517.34;5065579;28;19931;-54
2023/02/18 08:22:38;;;;;;;;;;;;;;;11.22;71.47;98521.88;5061155;28;19952;-54
2023/02/18 08:25:06;;;;;;;;;;;;;;;11.25;71.79;98519.38;5061719;28;20439;-54
2023/02/18 08:27:37;;;;;;;;;;;;;;;11.31;70.68;98511.94;5064242;28;19925;-54
2023/02/18 08:30:06;;;;;;;;;;;;;;;11.41;70.42;98505.50;5068540;28;19971;-54
2023/02/18 08:32:35;;;;;;;;;;;;;;;11.41;70.10;98497.34;5059227;28;20024;-54
2023/02/18 08:35:02;;;;;;;;;;;;;;;11.46;69.75;98491.78;5066484;28;19925;-53
2023/02/18 08:37:32;;;;;;;;;;;;;;;11.51;69.32;98500.66;5063193;28;19971;-56
2023/02/18 08:40:19;;;;;;;;;;;;;;;11.59;68.43;98501.06;5062258;28;20394;-54
2023/02/18 08:42:47;;;;;;;;;;;;;;;11.63;68.06;98491.19;5063480;28;19931;-54
2023/02/18 08:45:16;;;;;;;;;;;;;;;11.68;67.99;98493.78;5066708;28;20343;-55
2023/02/18 08:47:44;;;;;;;;;;;;;;;11.68;67.92;98493.78;5072907;28;19924;-54
2023/02/18 08:50:33;;;;;;;;;;;;;;;11.73;67.77;98485.53;5066112;28;19925;-54
2023/02/18 08:53:03;;;;;;;;;;;;;;;11.80;67.35;98491.34;5058572;28;19929;-56
2023/02/18 08:55:31;;;;;;;;;;;;;;;11.90;66.71;98498.53;5058433;28;19925;-55
2023/02/18 08:57:59;;;;;;;;;;;;;;;11.81;67.09;98479.34;5070255;28;19925;-53
2023/02/18 09:00:27;;;;;;;;;;;;;;;11.74;67.28;98476.25;5067782;28;19925;-54
2023/02/18 09:02:58;;;;;;;;;;;;;;;11.80;67.33;98480.47;5066207;28;19925;-55
2023/02/18 09:05:26;;;;;;;;;;;;;;;11.86;67.36;98460.22;5055992;28;19925;-54
2023/02/18 09:07:54;;;;;;;;;;;;;;;11.82;67.23;98461.94;5067970;28;19932;-54
2023/02/18 09:10:23;;;;;;;;;;;;;;;11.89;66.60;98451.44;5059585;28;19925;-54
2023/02/18 09:12:52;;;;;;;;;;;;;;;11.91;66.54;98454.66;5059400;28;19946;-56
2023/02/18 09:15:20;;;;;;;;;;;;;;;11.98;66.07;98444.13;5062068;28;19951;-55
2023/02/18 09:17:48;;;;;;;;;;;;;;;12.01;65.92;98432.66;5056241;28;19931;-55
2023/02/18 09:20:16;;;;;;;;;;;;;;;12.05;66.06;98433.66;5058799;28;20286;-54
2023/02/18 09:22:44;;;;;;;;;;;;;;;12.03;65.80;98415.97;5059156;28;19933;-53
2023/02/18 09:28:06;;;;;;;;;;;;;;;12.09;65.88;98416.66;5067515;28;19925;-54
2023/02/18 09:30:34;;;;;;;;;;;;;;;12.11;65.66;98422.63;5062124;28;20004;-54
2023/02/18 09:33:03;;;;;;;;;;;;;;;12.14;65.35;98424.72;5063033;28;19935;-53
2023/02/18 09:35:56;;;;;;;;;;;;;;;12.17;65.32;98429.56;5068245;28;19932;-54
2023/02/18 09:38:24;;;;;;;;;;;;;;;12.03;65.50;98427.69;5067083;28;19928;-53
2023/02/18 09:40:52;;;;;;;;;;;;;;;11.98;66.37;98432.44;5060031;28;19932;-53
2023/02/18 09:43:24;;;;;;;;;;;;;;;12.05;65.92;98435.56;5064738;28;20615;-57
2023/02/18 09:45:52;;;;;;;;;;;;;;;12.04;66.00;98442.94;5060090;28;19978;-54
2023/02/18 09:48:21;;;;;;;;;;;;;;;12.05;66.18;98433.66;5056221;28;20053;-56
2023/02/18 09:50:50;;;;;;;;;;;;;;;12.07;66.11;98434.13;5058500;28;20285;-54
2023/02/18 09:53:18;;;;;;;;;;;;;;;12.10;65.66;98421.03;5058243;28;20400;-53
2023/02/18 09:55:47;;;;;;;;;;;;;;;12.17;65.71;98430.38;5058616;28;19925;-54
2023/02/18 09:58:15;;;;;;;;;;;;;;;12.21;64.81;98422.38;5058410;28;19924;-54
2023/02/18 10:00:46;;;;;;;;;;;;;;;12.24;65.02;98419.84;5092957;28;19932;-54
2023/02/18 10:03:15;;;;;;;;;;;;;;;12.29;64.67;98417.00;5062872;28;20373;-54
2023/02/18 10:05:53;;;;;;;;;;;;;;;12.27;64.46;98412.97;5055278;28;19925;-54
2023/02/18 10:08:21;;;;;;;;;;;;;;;12.24;64.34;98419.03;5059880;28;20011;-54
2023/02/18 10:10:49;;;;;;;;;;;;;;;12.17;64.70;98408.56;5060723;28;19958;-53
2023/02/18 10:13:18;;;;;;;;;;;;;;;12.28;64.29;98423.56;5060058;28;19925;-54
2023/02/18 10:15:48;;;;;;;;;;;;;;;12.35;64.05;98405.97;5060085;28;19925;-55
2023/02/18 10:18:20;;;;;;;;;;;;;;;12.32;63.32;98416.38;5062761;28;19925;-55
2023/02/18 10:20:48;;;;;;;;;;;;;;;12.24;63.57;98419.03;5060961;28;19955;-56
2023/02/18 10:23:16;;;;;;;;;;;;;;;12.18;63.34;98399.28;5058011;28;19924;-55
2023/02/18 10:25:44;;;;;;;;;;;;;;;12.27;62.58;98416.50;5063450;28;19947;-53
2023/02/18 10:28:16;;;;;;;;;;;;;;;12.22;62.88;98410.38;5054342;28;19925;-53
2023/02/18 10:30:46;;;;;;;;;;;;;;;12.16;63.31;98412.41;5063878;28;20527;-54
2023/02/18 10:33:21;;;;;;;;;;;;;;;12.21;62.62;98400.59;5053551;28;19929;-53
2023/02/18 10:36:26;;;;;;;;;;;;;;;12.31;62.68;98392.19;5055633;28;19933;-54
2023/02/18 10:39:00;;;;;;;;;;;;;;;12.46;62.25;98394.50;5061136;28;19929;-53
2023/02/18 10:41:29;;;;;;;;;;;;;;;12.54;61.26;98380.13;5056491;28;19924;-54
2023/02/18 10:44:01;;;;;;;;;;;;;;;12.58;61.17;98380.31;5060201;28;19944;-53
2023/02/18 10:46:31;;;;;;;;;;;;;;;12.58;60.42;98385.75;5069151;28;19924;-54
2023/02/18 10:49:09;;;;;;;;;;;;;;;12.63;60.85;98393.81;5063615;28;19959;-58
2023/02/18 10:51:37;;;;;;;;;;;;;;;12.63;60.81;98388.34;5065349;28;19925;-53
2023/02/18 10:54:05;;;;;;;;;;;;;;;12.71;60.59;98376.69;5068487;28;19932;-53
2023/02/18 10:56:58;;;;;;;;;;;;;;;12.71;60.73;98378.59;5096138;28;19931;-53
2023/02/18 10:59:31;;;;;;;;;;;;;;;12.68;60.52;98390.94;5059882;28;20715;-53
2023/02/18 11:02:00;;;;;;;;;;;;;;;12.57;60.80;98393.13;5056696;28;20400;-54
2023/02/18 11:04:35;;;;;;;;;;;;;;;12.65;60.61;98374.41;5063050;28;19924;-53
2023/02/18 11:07:04;;;;;;;;;;;;;;;12.56;60.61;98377.88;5070633;28;19924;-54
2023/02/18 11:09:36;;;;;;;;;;;;;;;12.56;60.73;98374.34;5068911;28;20357;-55
2023/02/18 11:15:06;;;;;;;;;;;;;;;12.68;60.39;98362.88;5068834;28;19925;-53
2023/02/18 11:17:36;;;;;;;;;;;;;;;12.65;60.09;98363.50;5067409;28;20006;-53
2023/02/18 11:20:23;;;;;;;;;;;;;;;12.66;59.82;98365.09;5059299;28;20365;-53
2023/02/18 11:22:51;;;;;;;;;;;;;;;12.64;59.98;98348.28;5064070;28;19932;-55
2023/02/18 11:25:20;;;;;;;;;;;;;;;12.69;59.25;98338.03;5064796;28;19925;-55
2023/02/18 11:27:49;;;;;;;;;;;;;;;12.69;59.58;98353.59;5061510;28;20018;-53
2023/02/18 11:30:17;;;;;;;;;;;;;;;12.66;59.63;98359.66;5067385;28;20539;-53
2023/02/18 11:32:46;;;;;;;;;;;;;;;12.65;59.12;98347.94;5058577;28;20362;-54
2023/02/18 11:35:18;;;;;;;;;;;;;;;12.65;59.51;98356.13;5066234;28;19932;-54
2023/02/18 11:37:46;;;;;;;;;;;;;;;12.68;59.05;98344.59;5067905;28;19925;-54
2023/02/18 11:40:20;;;;;;;;;;;;;;;12.65;59.51;98339.78;5064271;28;19932;-53
2023/02/18 11:42:48;;;;;;;;;;;;;;;12.73;59.64;98349.09;5057809;28;20275;-53
2023/02/18 11:45:28;;;;;;;;;;;;;;;12.72;59.26;98342.84;5066831;28;20265;-53
2023/02/18 11:47:59;;;;;;;;;;;;;;;12.70;59.31;98357.91;5057301;28;19932;-53
2023/02/18 11:50:30;;;;;;;;;;;;;;;12.73;59.48;98322.66;5062174;28;20293;-53
2023/02/18 11:52:58;;;;;;;;;;;;;;;12.75;59.55;98330.50;5063294;28;19932;-54
2023/02/18 11:55:29;;;;;;;;;;;;;;;12.76;59.63;98315.75;5064883;28;19939;-54
2023/02/18 11:57:58;;;;;;;;;;;;;;;12.77;59.37;98317.34;5064136;28;20285;-53
2023/02/18 12:00:30;;;;;;;;;;;;;;;12.74;59.22;98313.34;5059376;28;19928;-53
2023/02/18 12:02:58;;;;;;;;;;;;;;;12.71;59.73;98327.59;5062454;28;19928;-53
2023/02/18 12:05:27;;;;;;;;;;;;;;;12.80;58.58;98327.66;5058985;28;19932;-53
2023/02/18 12:07:58;;;;;;;;;;;;;;;12.79;58.88;98315.13;5066716;28;19924;-54
2023/02/18 12:10:27;;;;;;;;;;;;;;;12.83;58.25;98327.00;5062863;28;19933;-53
2023/02/18 12:12:58;;;;;;;;;;;;;;;12.86;58.56;98320.94;5065923;28;20325;-52
2023/02/18 12:15:28;;;;;;;;;;;;;;;12.82;57.88;98320.75;5052704;28;19939;-54
2023/02/18 12:18:00;;;;;;;;;;;;;;;12.79;58.28;98310.50;5060105;28;19932;-54
2023/02/18 12:20:42;;;;;;;;;;;;;;;12.75;58.76;98303.25;5063210;28;19925;-53
2023/02/18 12:23:13;;;;;;;;;;;;;;;12.79;58.05;98342.41;5067236;28;20270;-55
2023/02/18 12:25:43;;;;;;;;;;;;;;;12.75;57.96;98306.78;5064273;28;19925;-54
2023/02/18 12:28:14;;;;;;;;;;;;;;;12.68;57.74;98320.06;5067346;28;19936;-53
2023/02/18 12:31:01;;;;;;;;;;;;;;;12.67;57.92;98313.00;5067612;28;19932;-56
2023/02/18 12:33:35;;;;;;;;;;;;;;;12.63;57.88;98294.88;5063452;28;20392;-55
2023/02/18 12:36:07;;;;;;;;;;;;;;;12.66;58.02;98307.84;5064200;28;19959;-54
2023/02/18 12:39:00;;;;;;;;;;;;;;;12.67;57.88;98323.09;5092506;28;19939;-54
2023/02/18 12:41:34;;;;;;;;;;;;;;;12.66;57.23;98300.47;5049499;28;20435;-53
2023/02/18 12:44:06;;;;;;;;;;;;;;;12.56;57.48;98301.56;5062076;28;19946;-53
2023/02/18 12:46:41;;;;;;;;;;;;;;;12.57;57.85;98302.41;5068829;28;19939;-53
2023/02/18 12:49:23;;;;;;;;;;;;;;;12.68;57.48;98292.81;5067023;28;19938;-54
2023/02/18 12:51:54;;;;;;;;;;;;;;;12.66;57.54;98295.03;5069292;28;19969;-53
2023/02/18 12:54:26;;;;;;;;;;;;;;;12.66;57.84;98288.78;5063336;28;19939;-54
2023/02/18 12:56:58;;;;;;;;;;;;;;;12.79;57.52;98288.69;5063567;28;19929;-53
2023/02/18 12:59:40;;;;;;;;;;;;;;;12.76;57.33;98288.50;5061863;28;20044;-53
2023/02/18 13:02:10;;;;;;;;;;;;;;;12.82;57.46;98284.50;5064841;28;19984;-53
2023/02/18 13:04:40;;;;;;;;;;;;;;;12.83;56.84;98284.19;5068666;28;20308;-52
2023/02/18 13:07:32;;;;;;;;;;;;;;;12.77;57.37;98284.66;5062320;28;19925;-55
2023/02/18 13:10:05;;;;;;;;;;;;;;;12.77;57.69;98284.66;5065768;28;19943;-53
2023/02/18 13:12:42;;;;;;;;;;;;;;;12.82;57.37;98287.22;5063798;28;20023;-53
2023/02/18 13:15:12;;;;;;;;;;;;;;;12.85;57.18;98281.16;5068111;28;19942;-60
2023/02/18 13:17:40;;;;;;;;;;;;;;;12.86;57.41;98280.03;5057955;28;19974;-52
2023/02/18 13:20:09;;;;;;;;;;;;;;;12.83;57.44;98277.91;5056601;28;19924;-50
2023/02/18 13:22:37;;;;;;;;;;;;;;;12.81;57.52;98269.25;5058437;28;19947;-51
2023/02/18 13:25:06;;;;;;;;;;;;;;;12.76;57.84;98261.22;5060254;28;19924;-50
2023/02/18 13:27:37;;;;;;;;;;;;;;;12.75;57.52;98278.72;5055867;28;19932;-50
2023/02/18 13:30:17;;;;;;;;;;;;;;;12.78;57.58;98253.53;5060622;28;20381;-51
2023/02/18 13:32:46;;;;;;;;;;;;;;;12.75;57.37;98274.06;5058542;28;19978;-51